Time;durP1;ratioP1;P1;durP2;ratioP2;P2;SDS_P1;SDS_P2;PMS_P1;PMS_P2;Temp;Humidity;BMP_temperature;BMP_pressure;BME280_temperature;BME280_humidity;BME280_pressure;Samples;Min_cycle;Max_cycle;Signal;HPM_P1;HPM_P2
2023/09/07 00:01:53;;;;;;;4.13;2.25;;;15.80;99.90;;;;;;5012793;28;20223;-61
2023/09/07 00:04:19;;;;;;;2.35;2.13;;;15.80;99.90;;;;;;5013232;28;20207;-61
2023/09/07 00:06:49;;;;;;;5.57;2.65;;;15.80;99.90;;;;;;5012860;28;20310;-62
2023/09/07 00:09:18;;;;;;;7.38;2.60;;;15.70;99.90;;;;;;5012999;28;20309;-61
2023/09/07 00:11:44;;;;;;;2.88;2.20;;;15.60;99.90;;;;;;5012827;28;20645;-61
2023/09/07 00:14:11;;;;;;;3.30;2.40;;;15.60;99.90;;;;;;5012972;28;20221;-61
2023/09/07 00:16:38;;;;;;;4.85;2.10;;;15.60;99.90;;;;;;5012860;28;20231;-61
2023/09/07 00:19:05;;;;;;;6.30;2.40;;;15.70;99.90;;;;;;5012555;28;20202;-61
2023/09/07 00:21:31;;;;;;;3.63;2.20;;;15.70;99.90;;;;;;5012878;28;20214;-61
2023/09/07 00:24:04;;;;;;;2.50;2.30;;;15.60;99.90;;;;;;5012346;28;20206;-61
2023/09/07 00:26:31;;;;;;;3.78;2.60;;;15.60;99.90;;;;;;5012774;28;20231;-61
2023/09/07 00:28:58;;;;;;;2.25;2.05;;;15.60;99.90;;;;;;5012354;28;20226;-60
2023/09/07 00:31:25;;;;;;;2.53;2.17;;;15.60;99.90;;;;;;5012616;28;20214;-61
2023/09/07 00:33:52;;;;;;;3.30;2.25;;;15.60;99.90;;;;;;5012383;28;20210;-61
2023/09/07 00:36:19;;;;;;;5.43;2.70;;;15.60;99.90;;;;;;5012351;28;20223;-61
2023/09/07 00:38:45;;;;;;;3.30;2.42;;;15.50;99.90;;;;;;5012389;28;20304;-61
2023/09/07 00:41:14;;;;;;;2.63;2.30;;;15.50;99.90;;;;;;5012532;28;20215;-61
2023/09/07 00:43:41;;;;;;;4.35;2.17;;;15.50;99.90;;;;;;5012113;28;20622;-61
2023/09/07 00:46:08;;;;;;;2.80;2.53;;;15.50;99.90;;;;;;5012212;28;20281;-61
2023/09/07 00:48:35;;;;;;;3.75;2.50;;;15.50;99.90;;;;;;5011994;28;20230;-61
2023/09/07 00:51:02;;;;;;;3.15;2.42;;;15.50;99.90;;;;;;5012065;28;20219;-63
2023/09/07 00:53:29;;;;;;;2.88;2.47;;;15.50;99.90;;;;;;5011756;28;20273;-61
2023/09/07 00:55:56;;;;;;;3.85;2.45;;;15.40;99.90;;;;;;5012236;28;20227;-61
2023/09/07 00:58:24;;;;;;;2.72;2.22;;;15.30;99.90;;;;;;5011983;28;20245;-61
2023/09/07 01:00:52;;;;;;;2.85;2.38;;;15.30;99.90;;;;;;5012074;28;20223;-62
2023/09/07 01:03:18;;;;;;;3.90;2.58;;;15.30;99.90;;;;;;5011644;28;20210;-62
2023/09/07 01:05:52;;;;;;;2.65;2.35;;;15.30;99.90;;;;;;5012071;28;20218;-61
2023/09/07 01:08:24;;;;;;;3.85;2.70;;;15.30;99.90;;;;;;5012138;28;20211;-61
2023/09/07 01:10:51;;;;;;;2.58;2.10;;;15.30;99.90;;;;;;5011978;28;20207;-61
2023/09/07 01:13:18;;;;;;;2.70;2.30;;;15.20;99.90;;;;;;5011490;28;20214;-61
2023/09/07 01:15:47;;;;;;;3.72;2.65;;;15.20;99.90;;;;;;5011735;28;20210;-62
2023/09/07 01:18:14;;;;;;;3.65;2.70;;;15.20;99.90;;;;;;5011644;28;20217;-61
2023/09/07 01:20:43;;;;;;;3.67;2.30;;;15.20;99.90;;;;;;5011928;28;20217;-62
2023/09/07 01:23:13;;;;;;;4.63;2.50;;;15.20;99.90;;;;;;5011447;28;20688;-62
2023/09/07 01:25:41;;;;;;;2.77;2.13;;;15.10;99.90;;;;;;5011713;28;20677;-60
2023/09/07 01:28:08;;;;;;;4.32;2.47;;;15.10;99.90;;;;;;5011563;28;20306;-61
2023/09/07 01:30:38;;;;;;;7.07;2.83;;;15.10;99.90;;;;;;5011279;28;20268;-60
2023/09/07 01:33:05;;;;;;;3.00;2.70;;;15.10;99.90;;;;;;5011411;28;20245;-61
2023/09/07 01:35:34;;;;;;;2.92;2.63;;;15.10;99.90;;;;;;5011462;28;20620;-61
2023/09/07 01:38:00;;;;;;;4.40;2.43;;;15.10;99.90;;;;;;5011557;28;20214;-61
2023/09/07 01:40:29;;;;;;;4.30;2.47;;;15.20;99.90;;;;;;5011632;28;20203;-62
2023/09/07 01:42:55;;;;;;;3.00;2.60;;;15.20;99.90;;;;;;5010628;28;20214;-61
2023/09/07 01:46:15;;;;;;;3.53;2.70;;;15.20;99.90;;;;;;5011109;28;20217;-61
2023/09/07 01:48:42;;;;;;;6.87;2.80;;;15.10;99.90;;;;;;5010835;28;20241;-60
2023/09/07 01:51:09;;;;;;;3.70;2.38;;;15.20;99.90;;;;;;5011362;28;20305;-61
2023/09/07 01:53:36;;;;;;;3.85;2.35;;;15.20;99.90;;;;;;5011136;28;20233;-61
2023/09/07 01:56:04;;;;;;;2.65;2.45;;;15.10;99.90;;;;;;5011225;28;20234;-61
2023/09/07 01:58:31;;;;;;;2.83;2.60;;;15.10;99.90;;;;;;5011115;28;20214;-61
2023/09/07 02:00:58;;;;;;;2.93;2.60;;;15.10;99.90;;;;;;5010934;28;20649;-60
2023/09/07 02:03:25;;;;;;;5.17;2.37;;;15.10;99.90;;;;;;5010900;28;20214;-62
2023/09/07 02:05:53;;;;;;;4.97;2.77;;;15.10;99.90;;;;;;5011323;28;20223;-62
2023/09/07 02:08:20;;;;;;;7.35;3.13;;;15.00;99.90;;;;;;5011318;28;20218;-61
2023/09/07 02:10:46;;;;;;;3.40;2.53;;;14.90;99.90;;;;;;5010952;28;20227;-61
2023/09/07 02:13:14;;;;;;;5.68;2.90;;;14.90;99.90;;;;;;5010672;28;20206;-62
2023/09/07 02:15:41;;;;;;;3.83;2.60;;;14.90;99.90;;;;;;5010730;28;20404;-61
2023/09/07 02:18:08;;;;;;;6.75;2.78;;;14.80;99.90;;;;;;5040559;23;20675;-56
2023/09/07 02:20:35;;;;;;;2.92;2.50;;;14.80;99.90;;;;;;5022834;28;20195;-57
2023/09/07 02:23:02;;;;;;;4.05;2.80;;;14.80;99.90;;;;;;5022413;28;20203;-57
2023/09/07 02:25:30;;;;;;;5.83;2.50;;;14.80;99.90;;;;;;5018984;28;20207;-60
2023/09/07 02:27:57;;;;;;;4.13;2.45;;;14.80;99.90;;;;;;5018941;28;20229;-57
2023/09/07 02:30:25;;;;;;;3.97;2.13;;;14.70;99.90;;;;;;5021230;28;20227;-57
2023/09/07 02:32:53;;;;;;;3.28;2.65;;;14.60;99.90;;;;;;5022146;28;20198;-58
2023/09/07 02:35:19;;;;;;;3.30;2.77;;;14.60;99.90;;;;;;5020371;28;20276;-58
2023/09/07 02:37:46;;;;;;;4.60;2.80;;;14.60;99.90;;;;;;5018829;28;20227;-57
2023/09/07 02:40:15;;;;;;;2.97;2.60;;;14.60;99.90;;;;;;5019259;28;20202;-57
2023/09/07 02:42:42;;;;;;;4.63;2.90;;;14.60;99.90;;;;;;5020857;28;20252;-58
2023/09/07 02:45:11;;;;;;;3.50;2.57;;;14.60;99.90;;;;;;5021504;28;20695;-57
2023/09/07 02:47:40;;;;;;;4.23;2.70;;;14.50;99.90;;;;;;5018668;28;20598;-57
2023/09/07 02:50:07;;;;;;;4.00;2.67;;;14.50;99.90;;;;;;5018648;28;20226;-57
2023/09/07 02:52:34;;;;;;;3.53;2.70;;;14.50;99.90;;;;;;5022057;28;20202;-57
2023/09/07 02:55:01;;;;;;;6.40;2.87;;;14.50;99.90;;;;;;5025237;28;20267;-57
2023/09/07 02:57:28;;;;;;;5.87;2.83;;;14.50;99.90;;;;;;5022435;28;20223;-58
2023/09/07 02:59:55;;;;;;;4.22;2.80;;;14.50;99.90;;;;;;5022486;28;20207;-56
2023/09/07 03:02:21;;;;;;;4.22;2.92;;;14.50;99.90;;;;;;5024281;28;20213;-56
2023/09/07 03:04:54;;;;;;;3.07;2.60;;;14.60;99.90;;;;;;5025843;28;20305;-57
2023/09/07 03:07:21;;;;;;;4.73;2.77;;;14.50;99.90;;;;;;5023482;28;20230;-57
2023/09/07 03:09:48;;;;;;;2.70;2.50;;;14.40;99.90;;;;;;5022002;28;20298;-56
2023/09/07 03:12:14;;;;;;;3.20;2.90;;;14.40;99.90;;;;;;5023157;28;20246;-58
2023/09/07 03:14:44;;;;;;;3.78;3.25;;;14.40;99.90;;;;;;5025512;28;20198;-57
2023/09/07 03:17:10;;;;;;;4.17;3.20;;;14.40;99.90;;;;;;5025151;28;20253;-59
2023/09/07 03:19:38;;;;;;;3.80;2.93;;;14.30;99.90;;;;;;5021988;28;20202;-56
2023/09/07 03:22:06;;;;;;;4.10;2.70;;;14.30;99.90;;;;;;5021996;28;20265;-57
2023/09/07 03:24:33;;;;;;;3.70;2.87;;;14.50;99.90;;;;;;5021801;28;20214;-57
2023/09/07 03:27:00;;;;;;;4.47;2.60;;;14.30;99.90;;;;;;5021819;28;20273;-56
2023/09/07 03:29:26;;;;;;;3.05;2.78;;;14.30;99.90;;;;;;5024068;28;20225;-57
2023/09/07 03:31:53;;;;;;;4.75;3.45;;;14.40;99.90;;;;;;5024852;28;20214;-57
2023/09/07 03:34:20;;;;;;;4.60;2.90;;;14.30;99.90;;;;;;5023148;28;20257;-57
2023/09/07 03:36:47;;;;;;;4.70;2.77;;;14.30;99.90;;;;;;5021399;28;20313;-58
2023/09/07 03:39:15;;;;;;;4.68;3.08;;;14.30;99.90;;;;;;5022543;28;20214;-58
2023/09/07 03:41:42;;;;;;;4.30;3.10;;;14.30;99.90;;;;;;5024590;28;20207;-57
2023/09/07 03:44:09;;;;;;;4.43;3.13;;;14.30;99.90;;;;;;5025095;28;20253;-57
2023/09/07 03:46:36;;;;;;;4.30;3.27;;;14.20;99.90;;;;;;5021978;28;20222;-58
2023/09/07 03:49:02;;;;;;;4.10;3.00;;;14.20;99.90;;;;;;5029714;28;20648;-57
2023/09/07 03:51:29;;;;;;;4.10;3.47;;;14.10;99.90;;;;;;5022180;28;20207;-57
2023/09/07 03:53:56;;;;;;;3.57;3.17;;;14.10;99.90;;;;;;5020967;28;20213;-56
2023/09/07 03:56:24;;;;;;;4.20;3.10;;;14.10;99.90;;;;;;5022955;28;20581;-56
2023/09/07 03:58:50;;;;;;;5.37;3.00;;;14.10;99.90;;;;;;5024573;28;20456;-56
2023/09/07 04:01:17;;;;;;;3.67;2.90;;;14.00;99.90;;;;;;5023175;28;20293;-57
2023/09/07 04:03:44;;;;;;;3.50;3.20;;;14.00;99.90;;;;;;5020595;28;20203;-57
2023/09/07 04:06:11;;;;;;;6.87;4.20;;;14.00;99.90;;;;;;5021035;28;20212;-59
2023/09/07 04:08:38;;;;;;;3.87;3.20;;;14.00;99.90;;;;;;5024655;28;20203;-57
2023/09/07 04:11:05;;;;;;;5.17;3.73;;;14.00;99.90;;;;;;5024005;28;20218;-59
2023/09/07 04:13:34;;;;;;;4.60;3.30;;;14.00;99.90;;;;;;5020448;28;20214;-56
2023/09/07 04:16:00;;;;;;;3.90;3.50;;;14.10;99.90;;;;;;5020523;28;20214;-56
2023/09/07 04:18:27;;;;;;;6.20;3.50;;;14.10;99.90;;;;;;5022976;28;20592;-60
2023/09/07 04:20:54;;;;;;;7.73;3.57;;;14.10;99.90;;;;;;5024186;28;20208;-56
2023/09/07 04:23:21;;;;;;;4.47;3.70;;;14.00;99.90;;;;;;5022096;28;20214;-56
2023/09/07 04:25:47;;;;;;;5.63;3.13;;;13.90;99.90;;;;;;5020604;28;20203;-58
2023/09/07 04:28:14;;;;;;;6.10;3.40;;;14.00;99.90;;;;;;5021312;28;20235;-56
2023/09/07 04:30:42;;;;;;;3.57;3.27;;;14.00;99.90;;;;;;5023594;28;20218;-57
2023/09/07 04:33:09;;;;;;;3.70;3.20;;;14.00;99.90;;;;;;5023785;28;20208;-59
2023/09/07 04:35:36;;;;;;;3.30;3.00;;;13.90;99.90;;;;;;5020820;28;20214;-57
2023/09/07 04:38:03;;;;;;;3.87;3.10;;;13.80;99.90;;;;;;5020760;28;20297;-56
2023/09/07 04:40:30;;;;;;;4.17;3.33;;;13.90;99.90;;;;;;5023308;28;20313;-57
2023/09/07 04:42:57;;;;;;;8.57;3.50;;;13.80;99.90;;;;;;5023567;28;20226;-56
2023/09/07 04:45:23;;;;;;;4.27;3.87;;;13.80;99.90;;;;;;5021731;28;20218;-56
2023/09/07 04:47:52;;;;;;;4.73;3.20;;;13.90;99.90;;;;;;5020044;28;20234;-57
2023/09/07 04:50:18;;;;;;;5.37;3.53;;;13.90;99.90;;;;;;5021063;28;20226;-57
2023/09/07 04:52:45;;;;;;;4.30;3.60;;;13.90;99.90;;;;;;5023499;28;20198;-57
2023/09/07 04:55:12;;;;;;;3.53;3.23;;;13.80;99.90;;;;;;5023124;28;20214;-59
2023/09/07 04:57:39;;;;;;;5.70;3.60;;;13.80;99.90;;;;;;5019894;28;20226;-57
2023/09/07 05:00:08;;;;;;;4.03;3.60;;;13.80;99.90;;;;;;5020233;28;20205;-56
2023/09/07 05:02:38;;;;;;;5.07;3.70;;;13.70;99.90;;;;;;5019841;28;20657;-56
2023/09/07 05:05:07;;;;;;;3.83;3.37;;;13.70;99.90;;;;;;5020058;28;20207;-57
2023/09/07 05:07:34;;;;;;;4.43;3.60;;;13.70;99.90;;;;;;5022918;28;20248;-56
2023/09/07 05:10:00;;;;;;;7.63;3.93;;;13.80;99.90;;;;;;5023295;28;20222;-57
2023/09/07 05:12:27;;;;;;;7.93;3.60;;;13.90;99.90;;;;;;5020469;28;20218;-57
2023/09/07 05:14:54;;;;;;;8.83;4.10;;;14.00;99.90;;;;;;5019802;28;20214;-56
2023/09/07 05:17:21;;;;;;;4.23;3.70;;;14.00;99.90;;;;;;5021250;28;20235;-58
2023/09/07 05:19:47;;;;;;;6.23;4.03;;;14.00;99.90;;;;;;5024440;28;20266;-57
2023/09/07 05:22:15;;;;;;;6.20;4.13;;;14.00;99.90;;;;;;5023252;28;20447;-57
2023/09/07 05:24:45;;;;;;;6.00;3.87;;;14.10;99.90;;;;;;5021302;28;20206;-56
2023/09/07 05:27:12;;;;;;;4.43;3.70;;;14.10;99.90;;;;;;5020518;28;20596;-56
2023/09/07 05:29:38;;;;;;;5.43;3.70;;;14.20;99.90;;;;;;5023553;28;20256;-59
2023/09/07 05:32:07;;;;;;;8.60;3.80;;;14.20;99.90;;;;;;5023625;28;20209;-57
2023/09/07 05:34:34;;;;;;;4.70;3.63;;;14.30;99.90;;;;;;5021692;28;20206;-56
2023/09/07 05:37:00;;;;;;;12.17;4.40;;;14.40;99.90;;;;;;5021455;28;20233;-57
2023/09/07 05:39:28;;;;;;;9.70;4.00;;;14.50;99.90;;;;;;5023336;28;20214;-57
2023/09/07 05:41:55;;;;;;;5.80;3.70;;;14.60;99.90;;;;;;5022827;28;20198;-57
2023/09/07 05:44:22;;;;;;;4.47;3.80;;;14.70;99.90;;;;;;5021634;28;20207;-57
2023/09/07 05:46:48;;;;;;;9.00;3.60;;;15.30;99.90;;;;;;5019745;28;20223;-56
2023/09/07 05:49:15;;;;;;;3.97;2.90;;;16.40;99.90;;;;;;5022938;28;20207;-59
2023/09/07 05:51:42;;;;;;;4.90;2.97;;;17.90;99.90;;;;;;5025940;28;20225;-58
2023/09/07 05:54:08;;;;;;;4.82;3.03;;;19.40;99.90;;;;;;5026632;28;20202;-57
2023/09/07 05:56:36;;;;;;;4.78;2.90;;;20.60;99.90;;;;;;5022834;28;20610;-60
2023/09/07 05:59:03;;;;;;;4.20;2.80;;;21.80;99.90;;;;;;5023675;28;20210;-60
2023/09/07 06:01:30;;;;;;;3.50;2.80;;;22.80;99.90;;;;;;5025664;28;20566;-58
2023/09/07 06:03:57;;;;;;;3.90;2.90;;;23.80;99.90;;;;;;5025183;28;20598;-58
2023/09/07 06:06:23;;;;;;;4.22;2.78;;;24.50;99.90;;;;;;5023480;28;20635;-61
2023/09/07 06:08:50;;;;;;;6.68;2.80;;;25.10;99.90;;;;;;5022524;28;20206;-58
2023/09/07 06:11:17;;;;;;;3.78;2.50;;;25.70;99.90;;;;;;5019813;28;20617;-57
2023/09/07 06:13:46;;;;;;;4.03;2.53;;;26.20;99.90;;;;;;5022206;28;20686;-58
2023/09/07 06:16:12;;;;;;;3.97;2.53;;;26.70;99.90;;;;;;5022086;28;20337;-59
2023/09/07 06:18:39;;;;;;;4.38;2.70;;;27.30;99.90;;;;;;5019174;28;20203;-57
2023/09/07 06:21:06;;;;;;;4.63;2.40;;;28.00;99.90;;;;;;5018987;28;20206;-58
2023/09/07 06:23:32;;;;;;;2.97;2.65;;;28.80;99.90;;;;;;5021203;28;20576;-58
2023/09/07 06:26:00;;;;;;;4.88;2.45;;;29.50;99.90;;;;;;5022724;28;20209;-59
2023/09/07 06:28:27;;;;;;;4.78;2.72;;;30.00;99.90;;;;;;5016857;28;20238;-58
2023/09/07 06:30:55;;;;;;;4.07;2.67;;;30.60;99.50;;;;;;5026228;28;20222;-58
2023/09/07 06:33:22;;;;;;;5.28;2.58;;;31.10;97.60;;;;;;5024282;28;20227;-58
2023/09/07 06:35:48;;;;;;;4.85;2.78;;;31.70;95.50;;;;;;5022372;28;20695;-58
2023/09/07 06:38:15;;;;;;;4.32;2.90;;;32.40;94.20;;;;;;5022756;28;20234;-58
2023/09/07 06:40:47;;;;;;;6.60;2.70;;;33.20;92.20;;;;;;5026335;28;20198;-60
2023/09/07 06:43:14;;;;;;;4.05;2.80;;;33.70;89.50;;;;;;5025917;28;20217;-60
2023/09/07 06:45:41;;;;;;;8.60;2.90;;;33.40;88.70;;;;;;5022703;28;20214;-59
2023/09/07 06:48:09;;;;;;;3.63;3.10;;;32.40;89.00;;;;;;5022655;28;20222;-59
2023/09/07 06:50:36;;;;;;;14.48;4.30;;;31.10;90.80;;;;;;5025052;28;20226;-59
2023/09/07 06:53:03;;;;;;;8.10;3.53;;;29.90;92.50;;;;;;5025835;28;20202;-59
2023/09/07 06:55:30;;;;;;;5.85;3.40;;;28.60;94.40;;;;;;5023735;28;20210;-59
2023/09/07 06:57:57;;;;;;;5.32;3.15;;;27.80;96.30;;;;;;5022285;28;20230;-59
2023/09/07 07:00:23;;;;;;;4.10;2.97;;;27.10;97.90;;;;;;5023503;28;20230;-57
2023/09/07 07:02:50;;;;;;;5.20;3.22;;;26.90;99.20;;;;;;5025130;28;20283;-58
2023/09/07 07:05:18;;;;;;;3.60;2.85;;;27.70;98.50;;;;;;5024842;28;20210;-58
2023/09/07 07:07:45;;;;;;;3.53;2.88;;;29.20;96.90;;;;;;5022231;28;20226;-59
2023/09/07 07:10:12;;;;;;;3.83;2.80;;;30.70;93.80;;;;;;5022600;28;20229;-58
2023/09/07 07:12:38;;;;;;;3.88;2.55;;;31.70;92.00;;;;;;5025952;28;20209;-59
2023/09/07 07:15:07;;;;;;;5.38;2.90;;;32.40;90.70;;;;;;5026579;28;20221;-61
2023/09/07 07:17:33;;;;;;;5.40;3.42;;;33.30;89.40;;;;;;5022679;28;20226;-59
2023/09/07 07:20:00;;;;;;;5.22;2.50;;;34.50;84.90;;;;;;5022255;28;20206;-58
2023/09/07 07:22:28;;;;;;;4.88;2.70;;;35.10;80.90;;;;;;5023506;28;20215;-59
2023/09/07 07:24:55;;;;;;;3.63;2.53;;;35.70;77.50;;;;;;5025289;28;20217;-59
2023/09/07 07:27:22;;;;;;;2.72;2.40;;;36.00;76.50;;;;;;5024448;28;20230;-58
2023/09/07 07:29:48;;;;;;;5.45;2.40;;;36.30;74.50;;;;;;5021837;28;20650;-58
2023/09/07 07:32:15;;;;;;;2.65;2.45;;;36.90;73.30;;;;;;5021508;28;20230;-60
2023/09/07 07:34:43;;;;;;;5.07;2.95;;;37.10;71.10;;;;;;5025533;28;20199;-58
2023/09/07 07:37:09;;;;;;;7.25;2.75;;;37.20;69.70;;;;;;5025670;28;20264;-59
2023/09/07 07:39:37;;;;;;;5.55;2.90;;;37.50;68.50;;;;;;5021486;28;20207;-61
2023/09/07 07:42:05;;;;;;;4.50;2.50;;;37.70;67.20;;;;;;5021882;28;20203;-59
2023/09/07 07:44:32;;;;;;;3.22;2.80;;;37.80;66.40;;;;;;5024567;28;20219;-58
2023/09/07 07:46:59;;;;;;;2.60;2.40;;;37.80;66.40;;;;;;5024968;28;20283;-61
2023/09/07 07:49:27;;;;;;;7.10;2.60;;;37.90;64.30;;;;;;5023899;28;20216;-59
2023/09/07 07:51:55;;;;;;;4.28;2.70;;;37.80;64.40;;;;;;5021754;28;20306;-59
2023/09/07 07:54:22;;;;;;;5.45;2.92;;;37.60;64.70;;;;;;5022852;28;20257;-60
2023/09/07 07:56:51;;;;;;;3.65;2.80;;;37.20;65.90;;;;;;5025072;28;20249;-59
2023/09/07 07:59:17;;;;;;;2.92;2.33;;;36.80;65.70;;;;;;5024648;28;20216;-59
2023/09/07 08:01:44;;;;;;;3.72;2.78;;;36.80;65.80;;;;;;5021292;28;20206;-58
2023/09/07 08:04:11;;;;;;;6.20;3.00;;;36.80;65.70;;;;;;5021371;28;20552;-57
2023/09/07 08:06:37;;;;;;;2.70;2.28;;;36.50;65.50;;;;;;5024191;28;20218;-58
2023/09/07 08:09:05;;;;;;;3.90;2.92;;;35.40;67.20;;;;;;5024530;28;20198;-57
2023/09/07 08:11:32;;;;;;;5.90;3.10;;;33.70;70.00;;;;;;5022257;28;20309;-60
2023/09/07 08:14:00;;;;;;;5.30;3.00;;;31.80;74.30;;;;;;5021047;28;20214;-58
2023/09/07 08:16:29;;;;;;;5.13;2.90;;;30.20;79.00;;;;;;5029392;28;20615;-65
2023/09/07 08:18:56;;;;;;;4.13;3.10;;;29.00;83.00;;;;;;5021144;28;20687;-61
2023/09/07 08:21:23;;;;;;;4.22;3.28;;;27.90;87.30;;;;;;5022393;28;20583;-59
2023/09/07 08:23:49;;;;;;;5.30;3.53;;;26.80;90.60;;;;;;5024551;28;20206;-58
2023/09/07 08:26:17;;;;;;;4.43;3.45;;;26.20;92.20;;;;;;5023928;28;20244;-62
2023/09/07 08:28:46;;;;;;;3.63;3.17;;;25.90;93.50;;;;;;5020881;28;20218;-58
2023/09/07 08:31:20;;;;;;;3.88;3.00;;;25.50;94.70;;;;;;5020659;28;20222;-58
2023/09/07 08:33:51;;;;;;;4.97;3.35;;;25.10;95.90;;;;;;5020555;28;20198;-58
2023/09/07 08:36:17;;;;;;;3.50;3.20;;;24.80;97.30;;;;;;5020406;28;20642;-59
2023/09/07 08:38:44;;;;;;;5.53;3.40;;;24.60;98.50;;;;;;5023871;28;20198;-60
2023/09/07 08:41:12;;;;;;;6.68;3.25;;;24.40;99.50;;;;;;5023584;28;20195;-57
2023/09/07 08:43:45;;;;;;;4.55;3.33;;;24.30;99.90;;;;;;5020616;28;20217;-58
2023/09/07 08:46:16;;;;;;;4.00;3.60;;;24.20;99.90;;;;;;5020317;28;20245;-59
2023/09/07 08:48:43;;;;;;;4.80;3.25;;;24.20;99.90;;;;;;5020469;28;20222;-58
2023/09/07 08:51:11;;;;;;;4.63;3.70;;;24.10;99.90;;;;;;5020301;28;20218;-58
2023/09/07 08:53:40;;;;;;;5.45;3.25;;;24.00;99.90;;;;;;5022616;28;20555;-58
2023/09/07 08:56:09;;;;;;;5.15;3.10;;;23.90;99.90;;;;;;5023879;28;20205;-58
2023/09/07 08:58:36;;;;;;;4.18;3.30;;;23.90;99.90;;;;;;5021002;28;20202;-58
2023/09/07 09:01:03;;;;;;;3.90;3.50;;;23.90;99.90;;;;;;5020084;28;20203;-58
2023/09/07 09:03:31;;;;;;;4.28;3.22;;;23.90;99.90;;;;;;5021434;28;20581;-58
2023/09/07 09:05:58;;;;;;;3.67;3.15;;;23.90;99.90;;;;;;5023269;28;20685;-57
2023/09/07 09:08:25;;;;;;;5.65;3.58;;;24.00;99.90;;;;;;5022310;28;20680;-61
2023/09/07 09:11:00;;;;;;;5.60;3.42;;;24.20;99.90;;;;;;5020195;28;20211;-58
2023/09/07 09:13:30;;;;;;;4.63;3.55;;;24.30;99.90;;;;;;5020936;28;20249;-59
2023/09/07 09:16:00;;;;;;;8.00;3.42;;;24.30;99.90;;;;;;5023373;28;20206;-58
2023/09/07 09:18:27;;;;;;;6.13;3.20;;;24.40;99.90;;;;;;5021974;28;20214;-62
2023/09/07 09:20:55;;;;;;;3.63;3.20;;;24.50;99.90;;;;;;5020078;28;20202;-63
2023/09/07 09:23:22;;;;;;;5.10;3.47;;;24.50;99.90;;;;;;5020350;28;20218;-64
2023/09/07 09:25:49;;;;;;;3.53;3.22;;;24.60;99.90;;;;;;5023336;28;20217;-64
2023/09/07 09:28:16;;;;;;;4.53;3.55;;;24.50;99.90;;;;;;5023031;28;20257;-64
2023/09/07 09:30:44;;;;;;;3.88;3.40;;;24.60;99.90;;;;;;5019801;28;20214;-65
2023/09/07 09:33:11;;;;;;;5.18;3.00;;;24.80;99.90;;;;;;5019073;28;20222;-64
2023/09/07 09:35:38;;;;;;;3.53;3.13;;;24.80;99.90;;;;;;5022568;28;20584;-65
2023/09/07 09:38:06;;;;;;;5.10;3.33;;;25.00;99.90;;;;;;5022963;28;20222;-65
2023/09/07 09:40:34;;;;;;;4.43;3.50;;;25.10;99.90;;;;;;5021056;28;20206;-63
2023/09/07 09:43:03;;;;;;;4.53;3.40;;;25.20;99.90;;;;;;5019055;28;20428;-65
2023/09/07 09:45:30;;;;;;;7.22;3.38;;;25.30;99.90;;;;;;5020942;28;20206;-64
2023/09/07 09:47:57;;;;;;;5.90;3.50;;;25.40;99.90;;;;;;5023235;28;20232;-61
2023/09/07 09:50:24;;;;;;;6.43;3.15;;;25.40;99.90;;;;;;5022447;28;20213;-62
2023/09/07 09:52:53;;;;;;;4.38;3.25;;;25.40;99.90;;;;;;5019127;28;20230;-62
2023/09/07 09:55:22;;;;;;;7.57;3.17;;;25.40;99.90;;;;;;5019425;28;20256;-63
2023/09/07 09:57:49;;;;;;;3.95;3.28;;;25.60;99.90;;;;;;5022584;28;20221;-61
2023/09/07 10:00:26;;;;;;;4.40;3.42;;;25.70;99.90;;;;;;5023108;28;20264;-60
2023/09/07 10:03:00;;;;;;;6.47;3.60;;;25.80;99.90;;;;;;5020941;28;20203;-60
2023/09/07 10:05:27;;;;;;;4.65;3.28;;;26.00;99.90;;;;;;5024270;28;20207;-60
2023/09/07 10:08:05;;;;;;;5.35;3.33;;;26.20;99.90;;;;;;5026928;28;20226;-61
2023/09/07 10:10:36;;;;;;;5.05;3.38;;;26.40;99.90;;;;;;5025215;28;20300;-60
2023/09/07 10:13:04;;;;;;;6.22;3.20;;;26.40;99.90;;;;;;5022985;28;20696;-61
2023/09/07 10:15:32;;;;;;;4.68;2.90;;;26.50;99.90;;;;;;5024797;28;20229;-60
2023/09/07 10:18:11;;;;;;;4.25;3.20;;;26.60;99.90;;;;;;5026209;28;20226;-64
2023/09/07 10:20:57;;;;;;;5.72;3.70;;;26.70;99.90;;;;;;5024088;28;20209;-60
2023/09/07 10:23:36;;;;;;;5.80;3.03;;;26.80;99.90;;;;;;5023437;28;20256;-61
2023/09/07 10:26:05;;;;;;;4.38;3.15;;;26.80;99.90;;;;;;5026515;28;20245;-60
2023/09/07 10:28:32;;;;;;;4.75;3.30;;;26.70;99.90;;;;;;5024798;28;20206;-60
2023/09/07 10:31:03;;;;;;;5.88;3.58;;;26.80;99.90;;;;;;5022979;28;20289;-60
2023/09/07 10:33:30;;;;;;;4.43;3.00;;;26.80;99.90;;;;;;5024209;28;20594;-65
2023/09/07 10:35:56;;;;;;;4.13;3.00;;;26.80;99.90;;;;;;5028002;28;20212;-61
2023/09/07 10:38:23;;;;;;;4.95;3.38;;;26.90;99.90;;;;;;5027339;28;20631;-61
2023/09/07 10:40:57;;;;;;;3.47;3.00;;;27.00;99.90;;;;;;5024546;28;20217;-61
2023/09/07 10:43:25;;;;;;;4.18;3.50;;;27.00;99.90;;;;;;5022956;28;20269;-60
2023/09/07 10:45:52;;;;;;;4.22;3.08;;;27.10;99.90;;;;;;5026152;28;20203;-61
2023/09/07 10:48:19;;;;;;;6.10;3.28;;;27.20;99.90;;;;;;5025731;28;20234;-62
2023/09/07 10:50:47;;;;;;;4.22;3.20;;;27.30;99.90;;;;;;5026211;28;20198;-61
2023/09/07 10:53:15;;;;;;;4.75;3.50;;;27.30;99.90;;;;;;5025772;28;20226;-61
2023/09/07 10:55:43;;;;;;;4.60;3.05;;;27.30;99.90;;;;;;5023302;28;20692;-62
2023/09/07 10:58:10;;;;;;;4.05;3.33;;;27.40;99.90;;;;;;5022382;28;20278;-62
2023/09/07 11:00:38;;;;;;;4.70;3.55;;;27.50;99.90;;;;;;5024566;28;20234;-62
2023/09/07 11:03:10;;;;;;;6.10;3.33;;;27.50;99.90;;;;;;5025713;28;20252;-63
2023/09/07 11:05:38;;;;;;;4.30;3.10;;;27.50;99.90;;;;;;5023767;28;20264;-63
2023/09/07 11:08:07;;;;;;;5.00;3.38;;;27.50;99.90;;;;;;5022243;28;20585;-62
2023/09/07 11:10:34;;;;;;;3.40;3.10;;;27.60;99.90;;;;;;5023667;28;20238;-61
2023/09/07 11:13:04;;;;;;;3.50;3.15;;;27.70;99.90;;;;;;5025362;28;20214;-62
2023/09/07 11:15:31;;;;;;;5.07;3.10;;;27.80;99.90;;;;;;5022781;28;20206;-61
2023/09/07 11:18:00;;;;;;;7.57;3.40;;;27.90;99.90;;;;;;5021678;28;20234;-61
2023/09/07 11:20:27;;;;;;;3.63;3.10;;;28.00;99.90;;;;;;5022773;28;20207;-62
2023/09/07 11:22:54;;;;;;;3.40;3.10;;;28.00;99.90;;;;;;5024888;28;20627;-63
2023/09/07 11:25:21;;;;;;;4.03;3.63;;;28.00;99.90;;;;;;5025408;28;20210;-61
2023/09/07 11:27:47;;;;;;;6.90;3.10;;;28.10;99.90;;;;;;5021818;28;20712;-63
2023/09/07 11:30:14;;;;;;;3.42;2.95;;;28.20;99.90;;;;;;5021847;28;20218;-62
2023/09/07 11:32:42;;;;;;;3.58;3.28;;;28.20;99.90;;;;;;5024274;28;20222;-62
2023/09/07 11:35:10;;;;;;;5.97;3.00;;;28.30;99.90;;;;;;5025344;28;20214;-60
2023/09/07 11:37:37;;;;;;;3.10;2.80;;;28.50;99.90;;;;;;5022735;28;20241;-61
2023/09/07 11:40:11;;;;;;;5.68;3.25;;;28.60;99.90;;;;;;5021490;28;20231;-62
2023/09/07 11:42:37;;;;;;;4.20;2.97;;;28.70;99.90;;;;;;5023822;28;20207;-61
2023/09/07 11:45:06;;;;;;;3.20;2.53;;;28.80;99.90;;;;;;5025287;28;20202;-61
2023/09/07 11:47:34;;;;;;;3.45;2.85;;;28.80;99.90;;;;;;5023619;28;20237;-61
2023/09/07 11:50:01;;;;;;;4.35;2.88;;;28.90;99.90;;;;;;5021665;28;20245;-62
2023/09/07 11:52:29;;;;;;;3.70;3.30;;;28.90;99.90;;;;;;5021995;28;20318;-62
2023/09/07 11:54:55;;;;;;;4.10;3.20;;;28.90;99.90;;;;;;5024739;28;20558;-62
2023/09/07 11:57:22;;;;;;;6.20;3.10;;;29.00;99.70;;;;;;5024775;28;20230;-63
2023/09/07 11:59:49;;;;;;;3.20;2.90;;;29.10;99.40;;;;;;5021620;28;20210;-62
2023/09/07 12:02:17;;;;;;;5.97;3.15;;;29.30;98.80;;;;;;5021254;28;20207;-62
2023/09/07 12:04:44;;;;;;;3.20;2.80;;;29.30;98.90;;;;;;5023994;28;20268;-61
2023/09/07 12:07:11;;;;;;;4.13;3.08;;;29.30;98.70;;;;;;5024704;28;20222;-62
2023/09/07 12:09:39;;;;;;;4.90;3.17;;;29.30;98.70;;;;;;5023244;28;20206;-61
2023/09/07 12:12:06;;;;;;;4.38;3.13;;;29.40;99.10;;;;;;5021050;28;20230;-62
2023/09/07 12:14:33;;;;;;;3.70;2.80;;;29.40;97.40;;;;;;5022107;28;20545;-60
2023/09/07 12:17:00;;;;;;;3.65;2.55;;;29.50;97.70;;;;;;5024425;28;20230;-62
2023/09/07 12:19:27;;;;;;;3.20;2.70;;;29.70;97.50;;;;;;5024037;28;20621;-61
2023/09/07 12:21:55;;;;;;;3.13;2.35;;;29.70;96.80;;;;;;5020756;28;20207;-60
2023/09/07 12:24:22;;;;;;;3.13;2.70;;;29.90;96.70;;;;;;5021348;28;20207;-68
2023/09/07 12:26:50;;;;;;;5.15;3.00;;;29.90;96.50;;;;;;5021002;28;20226;-60
2023/09/07 12:29:16;;;;;;;4.63;3.05;;;29.90;96.00;;;;;;5021191;28;20215;-61
2023/09/07 12:31:43;;;;;;;2.78;2.47;;;30.00;96.10;;;;;;5023534;28;20931;-61
2023/09/07 12:34:10;;;;;;;4.10;2.80;;;30.10;96.10;;;;;;5024543;28;20317;-60
2023/09/07 12:36:37;;;;;;;4.35;2.95;;;30.10;96.30;;;;;;5022389;28;20576;-60
2023/09/07 12:39:05;;;;;;;4.32;2.90;;;30.20;96.40;;;;;;5020668;28;20580;-62
2023/09/07 12:41:32;;;;;;;6.25;2.78;;;30.20;96.40;;;;;;5021720;28;20265;-62
2023/09/07 12:44:00;;;;;;;9.02;3.80;;;30.30;95.30;;;;;;5024006;28;20664;-60
2023/09/07 12:46:26;;;;;;;10.20;3.53;;;30.30;94.90;;;;;;5023369;28;20234;-61
2023/09/07 12:48:53;;;;;;;5.70;2.85;;;30.40;95.20;;;;;;5020875;28;20199;-63